createdAt,value
2019-01-12T00:01:27.368Z,24.67
2019-01-12T00:03:55.598Z,23.67
2019-01-12T00:06:23.141Z,24.00
2019-01-12T00:08:50.656Z,24.33
2019-01-12T00:11:18.182Z,20.10
2019-01-12T00:13:45.615Z,23.87
2019-01-12T00:16:13.340Z,22.93
2019-01-12T00:18:40.840Z,24.83
2019-01-12T00:21:08.351Z,25.93
2019-01-12T00:23:35.895Z,20.60
2019-01-12T00:26:03.540Z,25.27
2019-01-12T00:28:31.075Z,20.30
2019-01-12T00:30:58.569Z,24.57
2019-01-12T00:33:26.068Z,25.00
2019-01-12T00:35:53.576Z,22.77
2019-01-12T00:38:21.095Z,23.77
2019-01-12T00:40:48.642Z,22.70
2019-01-12T00:43:16.277Z,27.33
2019-01-12T00:45:43.798Z,23.53
2019-01-12T00:48:11.453Z,24.63
2019-01-12T00:50:39.010Z,25.57
2019-01-12T00:53:06.694Z,21.47
2019-01-12T00:55:34.277Z,26.90
2019-01-12T00:58:01.722Z,22.70
2019-01-12T01:00:29.644Z,23.20
2019-01-12T01:02:57.379Z,25.70
2019-01-12T01:05:25.087Z,23.03
2019-01-12T01:07:52.620Z,27.00
2019-01-12T01:10:21.688Z,26.53
2019-01-12T01:12:49.913Z,23.17
2019-01-12T01:15:18.654Z,20.70
2019-01-12T01:17:46.125Z,23.03
2019-01-12T01:20:14.728Z,20.80
2019-01-12T01:22:42.383Z,23.07
2019-01-12T01:25:10.074Z,26.60
2019-01-12T01:27:37.656Z,28.50
2019-01-12T01:30:08.509Z,25.70
2019-01-12T01:32:36.004Z,27.00
2019-01-12T01:35:04.269Z,25.00
2019-01-12T01:37:31.834Z,26.23
2019-01-12T01:39:59.447Z,25.57
2019-01-12T01:42:26.861Z,27.13
2019-01-12T01:44:54.431Z,21.10
2019-01-12T01:47:22.011Z,23.27
2019-01-12T01:49:49.535Z,27.77
2019-01-12T01:52:17.108Z,24.27
2019-01-12T01:54:44.567Z,20.40
2019-01-12T01:57:12.078Z,22.57
2019-01-12T01:59:39.665Z,24.70
2019-01-12T02:02:07.160Z,22.60
2019-01-12T02:04:34.643Z,23.03
2019-01-12T02:07:02.164Z,23.13
2019-01-12T02:09:29.781Z,27.40
2019-01-12T02:11:57.231Z,24.53
2019-01-12T02:14:24.803Z,25.40
2019-01-12T02:16:52.389Z,25.53
2019-01-12T02:19:19.955Z,26.00
2019-01-12T02:21:47.455Z,28.40
2019-01-12T02:24:15.036Z,35.77
2019-01-12T02:26:42.637Z,28.30
2019-01-12T02:29:10.159Z,37.33
2019-01-12T02:31:37.605Z,34.97
2019-01-12T02:34:05.176Z,34.87
2019-01-12T02:36:32.627Z,34.97
2019-01-12T02:39:00.058Z,31.63
2019-01-12T02:41:27.710Z,28.13
2019-01-12T02:43:55.285Z,27.27
2019-01-12T02:46:22.789Z,22.90
2019-01-12T02:48:50.345Z,26.47
2019-01-12T02:51:18.097Z,27.00
2019-01-12T02:53:46.030Z,22.23
2019-01-12T02:56:13.644Z,26.90
2019-01-12T02:58:41.168Z,22.63
2019-01-12T03:01:08.706Z,19.53
2019-01-12T03:03:36.285Z,22.50
2019-01-12T03:06:04.000Z,22.40
2019-01-12T03:08:31.548Z,22.20
2019-01-12T03:10:58.992Z,20.40
2019-01-12T03:13:26.449Z,19.93
2019-01-12T03:15:54.014Z,18.33
2019-01-12T03:18:21.597Z,23.33
2019-01-12T03:20:49.021Z,17.47
2019-01-12T03:23:16.562Z,19.47
2019-01-12T03:25:44.284Z,21.87
2019-01-12T03:28:11.959Z,21.03
2019-01-12T03:30:39.645Z,16.97
2019-01-12T03:33:07.219Z,19.37
2019-01-12T03:35:34.693Z,18.57
2019-01-12T03:38:02.299Z,18.23
2019-01-12T03:40:29.845Z,18.87
2019-01-12T03:42:57.336Z,16.67
2019-01-12T03:45:24.860Z,17.00
2019-01-12T03:47:52.330Z,19.93
2019-01-12T03:50:20.076Z,15.03
2019-01-12T03:52:47.582Z,19.90
2019-01-12T03:55:15.784Z,16.23
2019-01-12T03:57:43.269Z,16.93
2019-01-12T04:00:22.306Z,16.13
2019-01-12T04:02:49.832Z,19.50
2019-01-12T04:05:17.440Z,17.27
2019-01-12T04:07:44.995Z,18.10
2019-01-12T04:10:12.806Z,19.03
2019-01-12T04:12:40.249Z,16.20
2019-01-12T04:15:08.950Z,21.33
2019-01-12T04:17:36.489Z,17.53
2019-01-12T04:20:06.010Z,14.37
2019-01-12T04:22:33.602Z,15.60
2019-01-12T04:25:01.089Z,13.93
2019-01-12T04:27:28.569Z,13.90
2019-01-12T04:29:56.014Z,12.17
2019-01-12T04:32:23.608Z,15.53
2019-01-12T04:34:51.197Z,14.20
2019-01-12T04:37:18.738Z,17.37
2019-01-12T04:39:46.396Z,13.00
2019-01-12T04:42:13.909Z,15.80
2019-01-12T04:44:41.484Z,15.90
2019-01-12T04:47:09.046Z,16.37
2019-01-12T04:49:36.565Z,13.90
2019-01-12T04:52:04.093Z,13.07
2019-01-12T04:54:31.649Z,14.30
2019-01-12T04:56:59.245Z,15.40
2019-01-12T04:59:26.863Z,15.33
2019-01-12T05:01:54.341Z,14.70
2019-01-12T05:04:21.812Z,11.87
2019-01-12T05:06:49.347Z,14.13
2019-01-12T05:09:16.993Z,13.73
2019-01-12T05:11:44.482Z,14.20
2019-01-12T05:14:12.087Z,14.47
2019-01-12T05:16:39.652Z,17.07
2019-01-12T05:19:07.152Z,16.30
2019-01-12T05:21:35.259Z,15.53
2019-01-12T05:24:03.027Z,15.80
2019-01-12T05:26:30.580Z,15.80
2019-01-12T05:28:58.157Z,16.93
2019-01-12T05:31:25.651Z,15.73
2019-01-12T05:33:53.150Z,17.83
2019-01-12T05:36:20.805Z,15.57
2019-01-12T05:38:48.309Z,18.33
2019-01-12T05:41:15.836Z,16.23
2019-01-12T05:43:43.421Z,13.63
2019-01-12T05:46:11.388Z,16.20
2019-01-12T05:48:39.390Z,17.27
2019-01-12T05:51:06.990Z,16.03
2019-01-12T05:53:34.637Z,16.13
2019-01-12T05:56:02.128Z,13.93
2019-01-12T05:58:29.798Z,17.70
2019-01-12T06:00:57.440Z,16.40
2019-01-12T06:03:24.856Z,16.67
2019-01-12T06:05:52.517Z,13.40
2019-01-12T06:08:20.087Z,16.27
2019-01-12T06:10:47.549Z,14.27
2019-01-12T06:13:15.145Z,17.17
2019-01-12T06:15:42.709Z,15.37
2019-01-12T06:18:10.192Z,15.43
2019-01-12T06:20:37.701Z,14.30
2019-01-12T06:23:05.213Z,14.07
2019-01-12T06:25:32.776Z,19.00
2019-01-12T06:28:00.217Z,17.93
2019-01-12T06:30:28.131Z,14.43
2019-01-12T06:32:56.739Z,14.70
2019-01-12T06:35:24.237Z,15.80
2019-01-12T06:37:51.757Z,13.50
2019-01-12T06:40:19.497Z,28.83
2019-01-12T06:42:47.501Z,34.13
2019-01-12T06:45:15.782Z,31.07
2019-01-12T06:47:43.484Z,34.20
2019-01-12T06:50:14.331Z,34.93
2019-01-12T06:52:41.869Z,34.23
2019-01-12T06:55:09.715Z,36.43
2019-01-12T06:57:37.324Z,36.17
2019-01-12T07:00:08.038Z,42.13
2019-01-12T07:02:35.776Z,39.73
2019-01-12T07:05:04.817Z,39.10
2019-01-12T07:07:32.438Z,41.90
2019-01-12T07:09:59.900Z,44.23
2019-01-12T07:12:27.508Z,36.73
2019-01-12T07:14:55.067Z,22.30
2019-01-12T07:17:22.541Z,27.20
2019-01-12T07:19:50.063Z,27.93
2019-01-12T07:22:17.564Z,18.53
2019-01-12T07:24:45.096Z,17.53
2019-01-12T07:27:12.704Z,12.30
2019-01-12T07:29:40.266Z,13.20
2019-01-12T07:32:07.769Z,12.43
2019-01-12T07:34:35.339Z,14.10
2019-01-12T07:37:02.903Z,12.93
2019-01-12T07:39:30.329Z,15.23
2019-01-12T07:41:58.008Z,12.73
2019-01-12T07:44:25.638Z,16.13
2019-01-12T07:46:53.234Z,16.87
2019-01-12T07:49:20.763Z,13.50
2019-01-12T07:51:49.163Z,11.40
2019-01-12T07:54:16.792Z,14.27
2019-01-12T07:56:44.283Z,15.33
2019-01-12T07:59:11.932Z,18.90
2019-01-12T08:01:39.775Z,14.07
2019-01-12T08:04:07.452Z,13.73
2019-01-12T08:06:34.943Z,15.07
2019-01-12T08:09:04.415Z,14.30
2019-01-12T08:11:32.050Z,15.93
2019-01-12T08:13:59.645Z,15.73
2019-01-12T08:16:27.374Z,15.40
2019-01-12T08:18:54.964Z,12.70
2019-01-12T08:21:22.721Z,12.30
2019-01-12T08:23:50.295Z,13.27
2019-01-12T08:26:17.736Z,14.07
2019-01-12T08:28:45.280Z,11.13
2019-01-12T08:31:12.777Z,12.30
2019-01-12T08:33:40.320Z,11.90
2019-01-12T08:36:07.974Z,11.47
2019-01-12T08:38:35.484Z,15.27
2019-01-12T08:41:03.061Z,12.53
2019-01-12T08:43:31.103Z,13.97
2019-01-12T08:45:59.258Z,12.70
2019-01-12T08:48:26.868Z,15.77
2019-01-12T08:50:54.632Z,12.50
2019-01-12T08:53:22.260Z,14.73
2019-01-12T08:55:49.829Z,13.67
2019-01-12T08:58:17.283Z,14.37
2019-01-12T09:00:44.792Z,16.17
2019-01-12T09:03:12.409Z,15.73
2019-01-12T09:05:39.827Z,15.03
2019-01-12T09:08:07.833Z,14.17
2019-01-12T09:10:35.303Z,12.57
2019-01-12T09:13:02.912Z,11.47
2019-01-12T09:15:30.672Z,13.30
2019-01-12T09:17:58.147Z,15.33
2019-01-12T09:20:25.864Z,11.50
2019-01-12T09:22:54.339Z,10.57
2019-01-12T09:25:23.082Z,9.20
2019-01-12T09:27:50.877Z,7.30
2019-01-12T09:30:20.283Z,8.27
2019-01-12T09:32:48.173Z,8.60
2019-01-12T09:35:15.921Z,8.10
2019-01-12T09:37:43.740Z,8.53
2019-01-12T09:40:14.012Z,8.10
2019-01-12T09:42:41.711Z,8.60
2019-01-12T09:45:10.733Z,11.60
2019-01-12T09:47:38.754Z,18.07
2019-01-12T09:50:08.493Z,9.83
2019-01-12T09:52:36.682Z,9.37
2019-01-12T09:55:04.636Z,11.67
2019-01-12T09:57:32.151Z,9.93
2019-01-12T09:59:59.720Z,14.00
2019-01-12T10:02:27.345Z,6.93
2019-01-12T10:04:55.044Z,8.93
2019-01-12T10:07:22.735Z,9.83
2019-01-12T10:09:50.294Z,9.87
2019-01-12T10:12:17.877Z,7.73
2019-01-12T10:14:45.455Z,7.67
2019-01-12T10:17:12.929Z,10.70
2019-01-12T10:19:40.609Z,7.90
2019-01-12T10:22:08.341Z,9.70
2019-01-12T10:24:35.767Z,7.97
2019-01-12T10:27:03.813Z,8.17
2019-01-12T10:29:31.425Z,8.83
2019-01-12T10:31:58.922Z,13.93
2019-01-12T10:34:27.328Z,12.03
2019-01-12T10:36:54.998Z,6.97
2019-01-12T10:39:22.699Z,10.13
2019-01-12T10:41:50.453Z,11.73
2019-01-12T10:44:18.185Z,8.87
2019-01-12T10:46:45.877Z,8.57
2019-01-12T10:49:13.305Z,9.43
2019-01-12T10:51:40.826Z,11.63
2019-01-12T10:54:08.813Z,10.43
2019-01-12T10:56:36.521Z,10.47
2019-01-12T10:59:04.748Z,6.90
2019-01-12T11:01:32.553Z,9.40
2019-01-12T11:04:00.130Z,11.60
2019-01-12T11:06:27.707Z,7.17
2019-01-12T11:08:55.366Z,11.43
2019-01-12T11:11:23.386Z,5.97
2019-01-12T11:13:51.013Z,11.83
2019-01-12T11:16:18.749Z,8.30
2019-01-12T11:18:46.370Z,9.37
2019-01-12T11:21:13.874Z,7.47
2019-01-12T11:23:41.748Z,7.90
2019-01-12T11:26:09.865Z,8.57
2019-01-12T11:28:37.541Z,8.37
2019-01-12T11:31:05.397Z,9.50
2019-01-12T11:33:33.719Z,12.60
2019-01-12T11:36:01.435Z,9.90
2019-01-12T11:38:29.016Z,9.37
2019-01-12T11:40:57.008Z,8.03
2019-01-12T11:43:24.698Z,8.17
2019-01-12T11:45:52.435Z,13.30
2019-01-12T11:48:19.933Z,9.90
2019-01-12T11:50:47.441Z,13.60
2019-01-12T11:53:15.172Z,9.10
2019-01-12T11:55:42.825Z,8.17
2019-01-12T11:58:10.520Z,9.63
2019-01-12T12:00:38.091Z,6.57
2019-01-12T12:03:06.110Z,8.77
2019-01-12T12:05:33.600Z,5.17
2019-01-12T12:08:01.190Z,7.87
2019-01-12T12:10:28.888Z,7.60
2019-01-12T12:12:56.500Z,6.93
2019-01-12T12:15:24.151Z,8.07
2019-01-12T12:17:51.652Z,9.67
2019-01-12T12:20:21.691Z,7.07
2019-01-12T12:22:49.352Z,10.13
2019-01-12T12:25:17.692Z,8.40
2019-01-12T12:27:45.367Z,7.40
2019-01-12T12:30:18.959Z,9.60
2019-01-12T12:32:46.680Z,8.47
2019-01-12T12:35:15.078Z,8.17
2019-01-12T12:37:42.705Z,6.40
2019-01-12T12:40:11.656Z,7.30
2019-01-12T12:42:39.274Z,8.20
2019-01-12T12:45:10.880Z,8.57
2019-01-12T12:47:38.353Z,8.73
2019-01-12T12:50:08.266Z,8.77
2019-01-12T12:52:35.903Z,9.10
2019-01-12T12:55:04.735Z,9.40
2019-01-12T12:57:33.035Z,10.63
2019-01-12T13:00:00.770Z,10.50
2019-01-12T13:02:28.233Z,7.90
2019-01-12T13:04:55.692Z,9.13
2019-01-12T13:07:23.204Z,9.50
2019-01-12T13:09:50.686Z,8.97
2019-01-12T13:12:18.461Z,8.03
2019-01-12T13:14:46.207Z,8.57
2019-01-12T13:17:13.982Z,8.37
2019-01-12T13:19:50.342Z,5.17
2019-01-12T13:22:17.893Z,7.20
2019-01-12T13:24:49.315Z,8.17
2019-01-12T13:27:16.837Z,6.70
2019-01-12T13:29:44.497Z,9.87
2019-01-12T13:32:12.054Z,6.77
2019-01-12T13:34:40.704Z,8.77
2019-01-12T13:37:08.560Z,10.40
2019-01-12T13:39:36.074Z,8.93
2019-01-12T13:42:03.881Z,7.03
2019-01-12T13:44:31.424Z,5.70
2019-01-12T13:46:59.066Z,8.70
2019-01-12T13:49:26.724Z,8.83
2019-01-12T13:51:55.479Z,8.17
2019-01-12T13:54:23.213Z,8.27
2019-01-12T13:56:51.364Z,9.53
2019-01-12T13:59:19.682Z,10.10
2019-01-12T14:01:47.460Z,8.37
2019-01-12T14:04:15.767Z,7.63
2019-01-12T14:06:43.509Z,8.80
2019-01-12T14:09:11.162Z,10.30
2019-01-12T14:11:43.902Z,7.23
2019-01-12T14:14:14.241Z,7.17
2019-01-12T14:16:41.766Z,9.90
2019-01-12T14:19:09.327Z,8.23
2019-01-12T14:21:36.987Z,9.23
2019-01-12T14:24:04.552Z,9.57
2019-01-12T14:26:32.377Z,8.33
2019-01-12T14:28:59.984Z,7.80
2019-01-12T14:31:27.462Z,6.93
2019-01-12T14:33:55.089Z,9.60
2019-01-12T14:36:22.716Z,9.73
2019-01-12T14:38:50.301Z,10.30
2019-01-12T14:41:18.111Z,11.10
2019-01-12T14:43:45.735Z,10.70
2019-01-12T14:46:13.359Z,8.37
2019-01-12T14:48:41.141Z,11.43
2019-01-12T14:51:08.746Z,8.63
2019-01-12T14:53:36.774Z,10.17
2019-01-12T14:56:04.473Z,10.70
2019-01-12T14:58:32.090Z,9.87
2019-01-12T15:00:59.661Z,10.57
2019-01-12T15:03:27.064Z,9.00
2019-01-12T15:05:54.668Z,9.70
2019-01-12T15:08:22.143Z,9.87
2019-01-12T15:10:49.708Z,9.77
2019-01-12T15:13:17.156Z,10.07
2019-01-12T15:15:44.879Z,10.07
2019-01-12T15:18:12.477Z,10.87
2019-01-12T15:20:39.962Z,14.10
2019-01-12T15:23:07.583Z,12.30
2019-01-12T15:25:35.120Z,11.43
2019-01-12T15:28:09.138Z,11.20
2019-01-12T15:30:32.574Z,16.67
2019-01-12T15:33:02.775Z,11.20
2019-01-12T15:35:32.166Z,13.27
2019-01-12T15:37:59.817Z,11.10
2019-01-12T15:40:27.655Z,13.40
2019-01-12T15:42:55.148Z,11.70
2019-01-12T15:45:23.961Z,12.03
2019-01-12T15:47:52.038Z,15.63
2019-01-12T15:50:22.243Z,12.33
2019-01-12T15:52:49.973Z,10.93
2019-01-12T15:55:17.477Z,10.47
2019-01-12T15:57:46.672Z,10.87
2019-01-12T16:00:17.143Z,15.53
2019-01-12T16:02:44.881Z,11.13
2019-01-12T16:05:12.500Z,9.77
2019-01-12T16:07:40.419Z,13.50
2019-01-12T16:10:09.439Z,10.07
2019-01-12T16:12:37.148Z,11.67
2019-01-12T16:15:07.568Z,12.67
2019-01-12T16:17:35.071Z,10.63
2019-01-12T16:20:03.247Z,9.57
2019-01-12T16:22:30.789Z,11.07
2019-01-12T16:24:58.327Z,9.33
2019-01-12T16:27:25.868Z,10.93
2019-01-12T16:29:53.411Z,9.33
2019-01-12T16:32:20.914Z,11.37
2019-01-12T16:34:48.650Z,9.23
2019-01-12T16:37:16.397Z,9.63
2019-01-12T16:39:44.097Z,10.07
2019-01-12T16:42:11.723Z,13.47
2019-01-12T16:44:39.602Z,8.93
2019-01-12T16:47:07.253Z,10.63
2019-01-12T16:49:34.763Z,9.23
2019-01-12T16:52:02.732Z,22.00
2019-01-12T16:54:30.360Z,11.70
2019-01-12T16:56:57.904Z,11.67
2019-01-12T16:59:25.798Z,11.60
2019-01-12T17:01:53.239Z,10.90
2019-01-12T17:04:20.955Z,16.17
2019-01-12T17:06:48.614Z,12.03
2019-01-12T17:09:16.183Z,12.73
2019-01-12T17:11:43.680Z,13.80
2019-01-12T17:14:11.300Z,13.40
2019-01-12T17:16:38.720Z,13.20
2019-01-12T17:19:06.370Z,17.57
2019-01-12T17:21:33.921Z,14.93
2019-01-12T17:24:01.468Z,10.87
2019-01-12T17:26:28.975Z,21.67
2019-01-12T17:28:56.548Z,14.70
2019-01-12T17:31:24.217Z,12.10
2019-01-12T17:33:51.768Z,10.60
2019-01-12T17:36:19.424Z,11.40
2019-01-12T17:38:47.021Z,10.93
2019-01-12T17:41:14.905Z,13.23
2019-01-12T17:43:42.526Z,14.70
2019-01-12T17:46:10.058Z,14.47
2019-01-12T17:48:38.012Z,11.60
2019-01-12T17:51:05.598Z,16.47
2019-01-12T17:53:33.676Z,13.33
2019-01-12T17:56:02.315Z,11.20
2019-01-12T17:58:30.385Z,21.93
2019-01-12T18:00:58.006Z,13.00
2019-01-12T18:03:25.695Z,10.40
2019-01-12T18:05:53.589Z,10.97
2019-01-12T18:08:21.458Z,15.83
2019-01-12T18:10:49.178Z,10.80
2019-01-12T18:13:16.751Z,10.57
2019-01-12T18:15:44.286Z,13.40
2019-01-12T18:18:11.839Z,12.13
2019-01-12T18:20:39.736Z,9.23
2019-01-12T18:23:07.286Z,10.57
2019-01-12T18:25:34.885Z,11.80
2019-01-12T18:28:02.545Z,8.57
2019-01-12T18:30:29.967Z,9.47
2019-01-12T18:32:57.619Z,9.27
2019-01-12T18:35:25.189Z,9.17
2019-01-12T18:37:52.708Z,9.87
2019-01-12T18:40:20.289Z,12.53
2019-01-12T18:42:49.021Z,9.23
2019-01-12T18:45:17.398Z,12.53
2019-01-12T18:47:45.380Z,9.20
2019-01-12T18:50:16.099Z,10.77
2019-01-12T18:52:43.663Z,11.37
2019-01-12T18:55:11.676Z,11.33
2019-01-12T18:57:39.298Z,9.13
2019-01-12T19:00:18.396Z,12.43
2019-01-12T19:02:41.879Z,12.70
2019-01-12T19:05:09.520Z,10.20
2019-01-12T19:07:37.025Z,9.83
2019-01-12T19:10:05.701Z,12.57
2019-01-12T19:12:33.197Z,9.90
2019-01-12T19:15:00.836Z,17.87
2019-01-12T19:17:28.759Z,18.40
2019-01-12T19:19:56.484Z,14.67
2019-01-12T19:22:24.214Z,14.20
2019-01-12T19:24:51.832Z,10.60
2019-01-12T19:27:19.367Z,8.23
2019-01-12T19:29:46.840Z,6.80
2019-01-12T19:32:14.388Z,10.27
2019-01-12T19:34:41.913Z,10.87
2019-01-12T19:37:09.368Z,10.40
2019-01-12T19:39:37.023Z,8.50
2019-01-12T19:42:04.638Z,12.07
2019-01-12T19:44:32.150Z,10.23
2019-01-12T19:46:59.772Z,9.60
2019-01-12T19:49:27.400Z,7.20
2019-01-12T19:51:55.051Z,9.60
2019-01-12T19:54:22.707Z,7.60
2019-01-12T19:56:50.242Z,7.90
2019-01-12T19:59:17.820Z,10.60
2019-01-12T20:01:45.373Z,9.73
2019-01-12T20:04:13.288Z,12.60
2019-01-12T20:06:40.782Z,12.73
2019-01-12T20:09:09.041Z,11.07
2019-01-12T20:11:36.553Z,14.83
2019-01-12T20:14:04.739Z,13.83
2019-01-12T20:16:32.190Z,16.83
2019-01-12T20:18:59.630Z,14.47
2019-01-12T20:21:27.109Z,17.10
2019-01-12T20:23:54.655Z,20.00
2019-01-12T20:26:22.397Z,20.00
2019-01-12T20:28:49.845Z,18.03
2019-01-12T20:32:16.849Z,15.77
2019-01-12T20:34:55.571Z,17.70
2019-01-12T20:37:55.348Z,16.03
2019-01-12T20:40:57.576Z,15.47
2019-01-12T20:44:03.865Z,16.97
2019-01-12T20:47:02.365Z,14.57
2019-01-12T20:49:51.561Z,16.73
2019-01-12T20:52:46.309Z,15.70
2019-01-12T20:55:33.637Z,16.50
2019-01-12T20:58:39.188Z,17.73
2019-01-12T21:01:40.642Z,21.43
2019-01-12T21:04:48.088Z,18.53
2019-01-12T21:08:01.578Z,16.03
2019-01-12T21:10:58.819Z,31.73
2019-01-12T21:13:59.631Z,151.97
2019-01-12T21:16:31.022Z,106.17
2019-01-12T21:18:58.977Z,88.63
2019-01-12T21:21:26.555Z,76.73
2019-01-12T21:23:53.968Z,86.80
2019-01-12T21:26:21.477Z,77.73
2019-01-12T21:28:50.158Z,89.10
2019-01-12T21:31:17.782Z,95.87
2019-01-12T21:33:45.294Z,82.67
2019-01-12T21:36:12.832Z,77.87
2019-01-12T21:38:40.285Z,64.13
2019-01-12T21:41:08.008Z,53.33
2019-01-12T21:43:35.468Z,41.90
2019-01-12T21:46:03.377Z,54.20
2019-01-12T21:48:30.908Z,48.77
2019-01-12T21:50:58.322Z,47.20
2019-01-12T21:53:25.924Z,40.67
2019-01-12T21:55:53.614Z,38.83
2019-01-12T21:58:21.309Z,46.53
2019-01-12T22:00:49.264Z,38.90
2019-01-12T22:03:16.728Z,38.77
2019-01-12T22:05:45.565Z,45.33
2019-01-12T22:08:13.133Z,44.57
2019-01-12T22:10:40.722Z,35.50
2019-01-12T22:13:08.228Z,41.07
2019-01-12T22:15:35.786Z,41.43
2019-01-12T22:18:03.439Z,39.70
2019-01-12T22:20:31.148Z,39.07
2019-01-12T22:22:58.691Z,37.17
2019-01-12T22:25:26.274Z,39.87
2019-01-12T22:27:53.708Z,34.07
2019-01-12T22:30:21.462Z,34.30
2019-01-12T22:32:48.881Z,35.03
2019-01-12T22:35:16.514Z,36.77
2019-01-12T22:37:43.998Z,39.57
2019-01-12T22:40:16.463Z,44.77
2019-01-12T22:42:43.916Z,51.63
2019-01-12T22:45:11.448Z,55.97
2019-01-12T22:47:39.027Z,45.70
2019-01-12T22:50:08.266Z,53.90
2019-01-12T22:52:35.727Z,45.30
2019-01-12T22:55:04.339Z,46.77
2019-01-12T22:57:31.902Z,44.27
2019-01-12T22:59:59.412Z,48.43
2019-01-12T23:02:26.843Z,47.43
2019-01-12T23:04:54.313Z,48.20
2019-01-12T23:07:21.816Z,39.67
2019-01-12T23:09:49.406Z,62.30
2019-01-12T23:12:16.779Z,57.30
2019-01-12T23:14:44.317Z,62.53
2019-01-12T23:17:12.035Z,52.60
2019-01-12T23:19:39.531Z,57.13
2019-01-12T23:22:07.096Z,51.90
2019-01-12T23:24:34.568Z,52.10
2019-01-12T23:27:01.987Z,49.87
2019-01-12T23:29:29.478Z,59.83
2019-01-12T23:31:56.952Z,58.53
2019-01-12T23:34:24.462Z,55.33
2019-01-12T23:36:51.956Z,51.00
2019-01-12T23:39:19.482Z,51.70
2019-01-12T23:41:47.082Z,52.60
2019-01-12T23:44:14.947Z,50.27
2019-01-12T23:46:42.757Z,43.57
2019-01-12T23:49:10.301Z,45.80
2019-01-12T23:51:37.894Z,42.43
2019-01-12T23:54:05.423Z,44.83
2019-01-12T23:56:33.130Z,45.90
2019-01-12T23:59:00.710Z,40.53
